createdAt,value
2019-03-13T00:00:59.884Z,978.14
2019-03-13T00:01:59.995Z,978.07
2019-03-13T00:03:08.739Z,978.17
2019-03-13T00:04:00.219Z,978.20
2019-03-13T00:05:00.334Z,978.31
2019-03-13T00:06:00.400Z,978.19
2019-03-13T00:07:00.494Z,978.25
2019-03-13T00:08:00.584Z,978.47
2019-03-13T00:09:00.674Z,978.50
2019-03-13T00:10:00.762Z,978.62
2019-03-13T00:11:00.848Z,978.50
2019-03-13T00:12:00.929Z,978.56
2019-03-13T00:13:01.108Z,978.68
2019-03-13T00:14:01.108Z,978.66
2019-03-13T00:15:01.181Z,978.58
2019-03-13T00:16:01.270Z,978.66
2019-03-13T00:17:01.363Z,978.78
2019-03-13T00:18:01.463Z,978.68
2019-03-13T00:19:01.540Z,978.78
2019-03-13T00:20:01.626Z,978.97
2019-03-13T00:21:01.721Z,979.12
2019-03-13T00:22:01.809Z,979.20
2019-03-13T00:23:01.896Z,979.20
2019-03-13T00:24:01.996Z,979.25
2019-03-13T00:25:02.087Z,979.40
2019-03-13T00:26:02.180Z,979.47
2019-03-13T00:27:02.271Z,979.44
2019-03-13T00:28:02.347Z,979.43
2019-03-13T00:29:02.432Z,979.38
2019-03-13T00:30:02.510Z,979.42
2019-03-13T00:32:45.644Z,979.51
2019-03-13T00:33:45.731Z,979.49
2019-03-13T00:34:45.823Z,979.48
2019-03-13T00:35:45.921Z,979.38
2019-03-13T00:36:46.008Z,979.38
2019-03-13T00:37:46.099Z,979.30
2019-03-13T00:38:46.249Z,979.29
2019-03-13T00:39:46.293Z,979.33
2019-03-13T00:40:46.419Z,979.29
2019-03-13T00:41:46.492Z,979.33
2019-03-13T00:42:46.581Z,979.45
2019-03-13T00:43:46.679Z,979.60
2019-03-13T00:44:46.776Z,979.67
2019-03-13T00:45:46.860Z,979.80
2019-03-13T00:46:46.987Z,979.95
2019-03-13T00:47:47.045Z,979.93
2019-03-13T00:48:47.230Z,979.99
2019-03-13T00:49:47.254Z,980.05
2019-03-13T00:50:47.340Z,980.03
2019-03-13T00:51:47.426Z,980.09
2019-03-13T00:52:47.512Z,980.04
2019-03-13T00:53:47.596Z,980.03
2019-03-13T00:54:47.673Z,980.07
2019-03-13T00:55:47.771Z,980.08
2019-03-13T00:56:47.854Z,980.11
2019-03-13T00:57:47.932Z,980.08
2019-03-13T00:58:48.037Z,980.11
2019-03-13T00:59:48.122Z,980.11
2019-03-13T01:00:48.216Z,980.23
2019-03-13T01:01:48.339Z,980.17
2019-03-13T01:02:48.379Z,980.25
2019-03-13T01:03:48.472Z,980.26
2019-03-13T01:04:48.559Z,980.35
2019-03-13T01:05:48.660Z,980.41
2019-03-13T01:06:48.742Z,980.42
2019-03-13T01:07:48.837Z,980.50
2019-03-13T01:08:48.941Z,980.44
2019-03-13T01:09:49.024Z,980.51
2019-03-13T01:10:49.110Z,980.55
2019-03-13T01:11:49.198Z,980.55
2019-03-13T01:12:49.271Z,980.58
2019-03-13T01:13:49.355Z,980.56
2019-03-13T01:14:49.461Z,980.66
2019-03-13T01:15:49.549Z,980.70
2019-03-13T01:16:49.636Z,980.67
2019-03-13T01:17:49.729Z,980.84
2019-03-13T01:18:49.807Z,980.87
2019-03-13T01:19:49.905Z,980.93
2019-03-13T01:20:49.990Z,980.94
2019-03-13T01:21:50.077Z,981.01
2019-03-13T01:22:50.168Z,980.99
2019-03-13T01:23:50.259Z,981.03
2019-03-13T01:24:50.347Z,981.05
2019-03-13T01:25:50.432Z,981.07
2019-03-13T01:26:50.520Z,981.13
2019-03-13T01:27:50.601Z,981.14
2019-03-13T01:28:50.701Z,981.20
2019-03-13T01:29:50.787Z,981.15
2019-03-13T01:30:50.874Z,981.22
2019-03-13T01:31:50.976Z,981.18
2019-03-13T01:32:51.027Z,981.25
2019-03-13T01:33:51.135Z,981.28
2019-03-13T01:34:51.222Z,981.26
2019-03-13T01:35:51.373Z,981.32
2019-03-13T01:36:51.383Z,981.37
2019-03-13T01:37:51.512Z,981.29
2019-03-13T01:38:51.555Z,981.27
2019-03-13T01:39:51.628Z,981.26
2019-03-13T01:40:51.705Z,981.33
2019-03-13T01:41:51.804Z,981.36
2019-03-13T01:42:51.885Z,981.42
2019-03-13T01:43:51.973Z,981.41
2019-03-13T01:44:52.062Z,981.43
2019-03-13T01:45:52.151Z,981.34
2019-03-13T01:46:52.227Z,981.51
2019-03-13T01:47:52.317Z,981.44
2019-03-13T01:48:52.412Z,981.55
2019-03-13T01:49:52.570Z,981.49
2019-03-13T01:50:52.580Z,981.42
2019-03-13T01:51:52.649Z,981.49
2019-03-13T01:52:52.735Z,981.59
2019-03-13T01:53:52.825Z,981.59
2019-03-13T01:54:52.894Z,981.60
2019-03-13T01:55:53.002Z,981.60
2019-03-13T01:56:53.096Z,981.59
2019-03-13T01:57:53.189Z,981.62
2019-03-13T01:58:53.273Z,981.66
2019-03-13T01:59:53.366Z,981.64
2019-03-13T02:00:53.458Z,981.68
2019-03-13T02:01:53.540Z,981.78
2019-03-13T02:02:53.623Z,981.68
2019-03-13T02:03:53.734Z,981.76
2019-03-13T02:04:53.829Z,981.76
2019-03-13T02:05:53.924Z,981.81
2019-03-13T02:06:54.014Z,981.79
2019-03-13T02:07:54.090Z,981.76
2019-03-13T02:08:54.185Z,981.79
2019-03-13T02:09:54.255Z,981.79
2019-03-13T02:10:54.358Z,981.74
2019-03-13T02:11:54.441Z,981.75
2019-03-13T02:12:54.529Z,981.77
2019-03-13T02:13:54.604Z,981.81
2019-03-13T02:14:54.697Z,981.75
2019-03-13T02:15:54.788Z,981.74
2019-03-13T02:16:54.877Z,981.81
2019-03-13T02:17:54.961Z,981.84
2019-03-13T02:18:55.050Z,981.87
2019-03-13T02:19:55.127Z,981.83
2019-03-13T02:20:55.210Z,981.94
2019-03-13T02:21:55.290Z,981.92
2019-03-13T02:22:55.375Z,981.95
2019-03-13T02:23:55.466Z,981.99
2019-03-13T02:24:55.547Z,981.97
2019-03-13T02:25:55.709Z,982.08
2019-03-13T02:26:55.728Z,982.00
2019-03-13T02:27:55.808Z,982.03
2019-03-13T02:28:55.903Z,982.08
2019-03-13T02:29:55.987Z,982.02
2019-03-13T02:30:56.089Z,982.07
2019-03-13T02:31:56.168Z,982.09
2019-03-13T02:32:56.256Z,982.11
2019-03-13T02:33:56.343Z,982.13
2019-03-13T02:34:56.436Z,982.10
2019-03-13T02:35:56.531Z,982.12
2019-03-13T02:36:56.610Z,982.15
2019-03-13T02:37:56.698Z,982.22
2019-03-13T02:38:56.805Z,982.20
2019-03-13T02:39:56.883Z,982.04
2019-03-13T02:40:56.994Z,982.20
2019-03-13T02:41:57.052Z,982.23
2019-03-13T02:42:57.139Z,982.27
2019-03-13T02:43:57.228Z,982.26
2019-03-13T02:44:57.318Z,982.28
2019-03-13T02:45:57.410Z,982.30
2019-03-13T02:46:57.499Z,982.33
2019-03-13T02:47:57.585Z,982.40
2019-03-13T02:48:57.699Z,982.41
2019-03-13T02:49:57.788Z,982.47
2019-03-13T02:50:57.877Z,982.43
2019-03-13T02:51:57.963Z,982.44
2019-03-13T02:52:58.053Z,982.49
2019-03-13T02:53:58.137Z,982.51
2019-03-13T02:54:58.264Z,982.40
2019-03-13T02:55:58.310Z,982.55
2019-03-13T02:56:58.401Z,982.56
2019-03-13T02:57:58.488Z,982.65
2019-03-13T02:58:58.582Z,982.57
2019-03-13T02:59:58.659Z,982.63
2019-03-13T03:00:58.754Z,982.71
2019-03-13T03:01:58.834Z,982.66
2019-03-13T03:02:58.966Z,982.70
2019-03-13T03:03:59.019Z,982.62
2019-03-13T03:04:59.107Z,982.65
2019-03-13T03:05:59.198Z,982.63
2019-03-13T03:06:59.285Z,982.62
2019-03-13T03:07:59.378Z,982.61
2019-03-13T03:08:59.466Z,982.60
2019-03-13T03:09:59.555Z,982.57
2019-03-13T03:10:59.648Z,982.69
2019-03-13T03:11:59.729Z,982.60
2019-03-13T03:12:59.821Z,982.55
2019-03-13T03:13:59.915Z,982.58
2019-03-13T03:14:59.997Z,982.57
2019-03-13T03:16:00.083Z,982.63
2019-03-13T03:17:00.189Z,982.70
2019-03-13T03:18:00.267Z,982.55
2019-03-13T03:19:00.360Z,982.55
2019-03-13T03:20:00.601Z,982.61
2019-03-13T03:21:00.531Z,982.60
2019-03-13T03:22:00.627Z,982.62
2019-03-13T03:23:00.729Z,982.65
2019-03-13T03:24:00.798Z,982.63
2019-03-13T03:25:01.010Z,982.66
2019-03-13T03:26:00.966Z,982.71
2019-03-13T03:27:01.058Z,982.57
2019-03-13T03:28:01.154Z,982.72
2019-03-13T03:29:01.231Z,982.64
2019-03-13T03:30:01.334Z,982.61
2019-03-13T03:31:01.412Z,982.62
2019-03-13T03:32:01.508Z,982.66
2019-03-13T03:33:01.593Z,982.66
2019-03-13T03:34:01.702Z,982.67
2019-03-13T03:35:01.904Z,982.72
2019-03-13T03:36:01.859Z,982.70
2019-03-13T03:37:01.950Z,982.69
2019-03-13T03:38:02.069Z,982.72
2019-03-13T03:39:02.149Z,982.79
2019-03-13T03:40:02.236Z,982.72
2019-03-13T03:41:02.314Z,982.72
2019-03-13T03:42:02.403Z,982.66
2019-03-13T03:43:02.514Z,982.75
2019-03-13T03:44:02.624Z,982.74
2019-03-13T03:45:02.693Z,982.70
2019-03-13T03:46:02.784Z,982.71
2019-03-13T03:47:02.883Z,982.68
2019-03-13T03:48:02.974Z,982.67
2019-03-13T03:49:03.037Z,982.70
2019-03-13T03:50:03.130Z,982.71
2019-03-13T03:51:03.228Z,982.67
2019-03-13T03:52:03.315Z,982.69
2019-03-13T03:53:03.395Z,982.69
2019-03-13T03:54:03.488Z,982.67
2019-03-13T03:55:03.580Z,982.64
2019-03-13T03:56:03.660Z,982.67
2019-03-13T03:57:03.745Z,982.67
2019-03-13T03:58:03.835Z,982.64
2019-03-13T03:59:03.930Z,982.60
2019-03-13T04:00:04.016Z,982.60
2019-03-13T04:01:04.101Z,982.61
2019-03-13T04:02:04.191Z,982.58
2019-03-13T04:03:04.287Z,982.62
2019-03-13T04:04:04.366Z,982.57
2019-03-13T04:05:04.471Z,982.58
2019-03-13T04:06:04.546Z,982.47
2019-03-13T04:07:04.636Z,982.53
2019-03-13T04:08:04.726Z,982.53
2019-03-13T04:09:04.815Z,982.56
2019-03-13T04:10:04.903Z,982.55
2019-03-13T04:11:04.985Z,982.60
2019-03-13T04:12:05.071Z,982.57
2019-03-13T04:13:05.168Z,982.59
2019-03-13T04:14:05.302Z,982.57
2019-03-13T04:15:05.362Z,982.64
2019-03-13T04:16:05.454Z,982.66
2019-03-13T04:17:05.526Z,982.74
2019-03-13T04:18:05.608Z,982.58
2019-03-13T04:19:05.707Z,982.70
2019-03-13T04:20:05.786Z,982.66
2019-03-13T04:21:05.917Z,982.65
2019-03-13T04:22:05.962Z,982.63
2019-03-13T04:23:06.053Z,982.66
2019-03-13T04:24:06.138Z,982.63
2019-03-13T04:25:06.232Z,982.66
2019-03-13T04:26:06.319Z,982.64
2019-03-13T04:27:06.407Z,982.59
2019-03-13T04:28:06.500Z,982.63
2019-03-13T04:29:06.585Z,982.57
2019-03-13T04:30:06.700Z,982.62
2019-03-13T04:31:06.778Z,982.63
2019-03-13T04:32:06.870Z,982.65
2019-03-13T04:33:06.990Z,982.68
2019-03-13T04:34:07.037Z,982.59
2019-03-13T04:35:07.145Z,982.65
2019-03-13T04:36:07.235Z,982.57
2019-03-13T04:37:07.320Z,982.68
2019-03-13T04:38:07.423Z,982.67
2019-03-13T04:39:07.505Z,982.66
2019-03-13T04:40:07.594Z,982.74
2019-03-13T04:41:07.685Z,982.67
2019-03-13T04:42:07.773Z,982.68
2019-03-13T04:43:07.862Z,982.69
2019-03-13T04:44:07.952Z,982.70
2019-03-13T04:45:08.041Z,982.70
2019-03-13T04:46:08.133Z,982.73
2019-03-13T04:47:08.216Z,982.76
2019-03-13T04:48:08.310Z,982.82
2019-03-13T04:49:08.396Z,982.83
2019-03-13T04:50:08.484Z,982.77
2019-03-13T04:51:08.572Z,982.77
2019-03-13T04:52:08.662Z,982.74
2019-03-13T04:53:08.750Z,982.78
2019-03-13T04:54:08.835Z,982.82
2019-03-13T04:55:08.986Z,982.82
2019-03-13T04:56:09.011Z,982.80
2019-03-13T04:57:09.094Z,982.83
2019-03-13T04:58:09.179Z,982.76
2019-03-13T04:59:09.270Z,982.75
2019-03-13T05:00:09.359Z,982.75
2019-03-13T05:01:09.439Z,982.73
2019-03-13T05:02:09.528Z,982.70
2019-03-13T05:03:09.608Z,982.79
2019-03-13T05:04:09.696Z,982.71
2019-03-13T05:05:09.782Z,982.77
2019-03-13T05:06:09.871Z,982.73
2019-03-13T05:07:09.979Z,982.79
2019-03-13T05:08:10.051Z,982.71
2019-03-13T05:09:10.141Z,982.84
2019-03-13T05:10:10.232Z,982.78
2019-03-13T05:11:10.319Z,982.80
2019-03-13T05:12:10.410Z,982.79
2019-03-13T05:13:10.696Z,982.82
2019-03-13T05:14:10.582Z,982.85
2019-03-13T05:15:10.678Z,982.79
2019-03-13T05:16:10.758Z,982.82
2019-03-13T05:17:10.850Z,982.83
2019-03-13T05:18:10.935Z,982.85
2019-03-13T05:19:11.030Z,982.83
2019-03-13T05:20:13.700Z,982.85
2019-03-13T05:21:11.208Z,982.89
2019-03-13T05:22:11.305Z,982.88
2019-03-13T05:23:11.396Z,982.78
2019-03-13T05:24:11.487Z,982.86
2019-03-13T05:25:11.579Z,982.78
2019-03-13T05:26:11.662Z,982.85
2019-03-13T05:27:11.753Z,982.83
2019-03-13T05:28:11.848Z,982.84
2019-03-13T05:29:11.930Z,982.83
2019-03-13T05:30:12.019Z,982.87
2019-03-13T05:31:12.108Z,982.86
2019-03-13T05:32:12.197Z,982.87
2019-03-13T05:33:12.292Z,982.80
2019-03-13T05:34:12.381Z,982.76
2019-03-13T05:35:12.470Z,982.79
2019-03-13T05:36:12.565Z,982.71
2019-03-13T05:37:12.645Z,982.73
2019-03-13T05:38:12.732Z,982.75
2019-03-13T05:39:12.822Z,982.77
2019-03-13T05:40:12.915Z,982.75
2019-03-13T05:41:13.036Z,982.72
2019-03-13T05:42:13.268Z,982.65
2019-03-13T05:43:13.300Z,982.69
2019-03-13T05:44:13.274Z,982.68
2019-03-13T05:45:13.366Z,982.77
2019-03-13T05:46:13.446Z,982.78
2019-03-13T05:47:13.549Z,982.68
2019-03-13T05:48:13.639Z,982.72
2019-03-13T05:49:13.730Z,982.74
2019-03-13T05:50:13.818Z,982.79
2019-03-13T05:51:13.908Z,982.85
2019-03-13T05:52:13.998Z,982.88
2019-03-13T05:53:14.084Z,982.85
2019-03-13T05:54:14.179Z,982.81
2019-03-13T05:55:14.266Z,982.88
2019-03-13T05:56:14.359Z,982.89
2019-03-13T05:57:14.444Z,982.85
2019-03-13T05:58:14.530Z,982.84
2019-03-13T05:59:14.621Z,982.84
2019-03-13T06:00:14.702Z,982.83
2019-03-13T06:01:14.790Z,982.93
2019-03-13T06:02:14.880Z,982.94
2019-03-13T06:03:14.983Z,982.83
2019-03-13T06:04:15.083Z,982.94
2019-03-13T06:05:15.191Z,982.98
2019-03-13T06:06:15.279Z,982.91
2019-03-13T06:07:15.370Z,982.83
2019-03-13T06:08:18.364Z,982.92
2019-03-13T06:09:15.544Z,982.99
2019-03-13T06:10:15.670Z,982.93
2019-03-13T06:11:15.720Z,983.03
2019-03-13T06:12:15.809Z,982.91
2019-03-13T06:13:15.899Z,982.94
2019-03-13T06:14:15.992Z,982.96
2019-03-13T06:15:16.091Z,983.02
2019-03-13T06:16:16.173Z,983.04
2019-03-13T06:17:16.259Z,983.05
2019-03-13T06:18:16.350Z,982.98
2019-03-13T06:19:16.445Z,983.01
2019-03-13T06:20:16.529Z,983.10
2019-03-13T06:21:16.616Z,983.03
2019-03-13T06:22:16.703Z,982.97
2019-03-13T06:23:16.794Z,983.04
2019-03-13T06:24:16.887Z,982.94
2019-03-13T06:25:16.968Z,982.92
2019-03-13T06:26:17.108Z,982.95
2019-03-13T06:27:17.147Z,982.92
2019-03-13T06:28:17.238Z,982.96
2019-03-13T06:29:17.336Z,982.94
2019-03-13T06:30:17.434Z,982.86
2019-03-13T06:31:17.514Z,982.86
2019-03-13T06:32:17.602Z,982.94
2019-03-13T06:33:18.296Z,982.97
2019-03-13T06:34:17.766Z,983.03
2019-03-13T06:35:17.853Z,983.02
2019-03-13T06:36:18.209Z,982.98
2019-03-13T06:37:18.055Z,982.97
2019-03-13T06:38:18.148Z,983.14
2019-03-13T06:39:18.238Z,983.00
2019-03-13T06:40:18.333Z,983.11
2019-03-13T06:41:18.571Z,983.12
2019-03-13T06:42:18.521Z,983.08
2019-03-13T06:43:18.620Z,983.04
2019-03-13T06:44:18.711Z,983.05
2019-03-13T06:45:18.798Z,983.00
2019-03-13T06:46:18.895Z,983.04
2019-03-13T06:47:19.147Z,983.01
2019-03-13T06:48:19.083Z,982.98
2019-03-13T06:49:19.214Z,982.98
2019-03-13T06:50:19.317Z,983.06
2019-03-13T06:51:19.468Z,983.15
2019-03-13T06:52:19.528Z,982.91
2019-03-13T06:53:20.190Z,983.12
2019-03-13T06:54:20.300Z,983.23
2019-03-13T06:55:19.783Z,983.15
2019-03-13T06:56:19.871Z,983.11
2019-03-13T06:57:19.943Z,983.12
2019-03-13T06:58:20.044Z,983.04
2019-03-13T06:59:20.130Z,983.06
2019-03-13T07:00:20.272Z,983.01
2019-03-13T07:01:21.198Z,982.96
2019-03-13T07:02:20.417Z,983.13
2019-03-13T07:03:20.510Z,983.08
2019-03-13T07:04:21.244Z,983.23
2019-03-13T07:05:21.659Z,983.25
2019-03-13T07:06:21.415Z,983.02
2019-03-13T07:07:20.761Z,983.11
2019-03-13T07:08:20.850Z,983.12
2019-03-13T07:09:20.946Z,983.15
2019-03-13T07:10:21.070Z,983.14
2019-03-13T07:11:21.175Z,983.11
2019-03-13T07:12:21.235Z,983.33
2019-03-13T07:13:21.349Z,983.19
2019-03-13T07:14:21.445Z,983.17
2019-03-13T07:15:22.485Z,983.28
2019-03-13T07:16:21.644Z,983.33
2019-03-13T07:17:21.733Z,983.31
2019-03-13T07:18:22.445Z,983.28
2019-03-13T07:19:21.914Z,983.23
2019-03-13T07:20:22.001Z,983.19
2019-03-13T07:21:23.502Z,983.32
2019-03-13T07:22:22.170Z,983.28
2019-03-13T07:23:22.326Z,983.39
2019-03-13T07:24:22.424Z,983.30
2019-03-13T07:25:22.578Z,983.31
2019-03-13T07:26:22.562Z,983.41
2019-03-13T07:27:22.655Z,983.34
2019-03-13T07:28:22.752Z,983.52
2019-03-13T07:29:22.830Z,983.35
2019-03-13T07:30:22.916Z,983.32
2019-03-13T07:31:23.027Z,983.33
2019-03-13T07:32:23.162Z,983.35
2019-03-13T07:33:23.248Z,983.29
2019-03-13T07:34:23.324Z,983.22
2019-03-13T07:35:23.415Z,983.28
2019-03-13T07:36:23.518Z,983.25
2019-03-13T07:37:23.619Z,983.43
2019-03-13T07:38:23.706Z,983.31
2019-03-13T07:39:23.792Z,983.17
2019-03-13T07:40:24.140Z,983.22
2019-03-13T07:41:23.976Z,983.27
2019-03-13T07:42:24.124Z,983.30
2019-03-13T07:46:37.021Z,983.20
2019-03-13T07:47:38.122Z,983.27
2019-03-13T07:48:38.169Z,983.27
2019-03-13T07:49:37.231Z,983.25
2019-03-13T07:50:37.326Z,983.22
2019-03-13T07:51:37.435Z,983.23
2019-03-13T07:52:37.554Z,983.22
2019-03-13T07:53:37.655Z,983.31
2019-03-13T07:54:37.734Z,983.24
2019-03-13T07:55:38.422Z,983.22
2019-03-13T07:56:38.054Z,983.28
2019-03-13T07:57:37.895Z,983.31
2019-03-13T07:58:38.344Z,983.36
2019-03-13T07:59:38.033Z,983.44
2019-03-13T08:00:38.135Z,983.35
2019-03-13T08:01:38.225Z,983.37
2019-03-13T08:02:38.377Z,983.49
2019-03-13T08:03:38.375Z,983.34
2019-03-13T08:04:38.432Z,983.49
2019-03-13T08:05:38.526Z,983.47
2019-03-13T08:06:38.617Z,983.39
2019-03-13T08:07:38.703Z,983.37
2019-03-13T08:08:38.784Z,983.44
2019-03-13T08:09:38.860Z,983.55
2019-03-13T08:10:38.956Z,983.44
2019-03-13T08:11:39.062Z,983.44
2019-03-13T08:12:39.174Z,983.46
2019-03-13T08:13:39.232Z,983.35
2019-03-13T08:14:39.348Z,983.41
2019-03-13T08:15:40.194Z,983.35
2019-03-13T08:16:39.540Z,983.27
2019-03-13T08:17:39.629Z,983.41
2019-03-13T08:18:40.213Z,983.48
2019-03-13T08:19:39.802Z,983.44
2019-03-13T08:20:39.895Z,983.36
2019-03-13T08:21:39.988Z,983.46
2019-03-13T08:22:40.069Z,983.37
2019-03-13T08:23:40.165Z,983.36
2019-03-13T08:24:40.258Z,983.54
2019-03-13T08:25:40.337Z,983.58
2019-03-13T08:26:40.425Z,983.41
2019-03-13T08:27:40.516Z,983.45
2019-03-13T08:28:40.643Z,983.54
2019-03-13T08:29:40.693Z,983.48
2019-03-13T08:30:40.784Z,983.44
2019-03-13T08:31:40.872Z,983.47
2019-03-13T08:32:40.960Z,983.43
2019-03-13T08:33:41.084Z,983.43
2019-03-13T08:34:41.211Z,983.52
2019-03-13T08:35:41.294Z,983.54
2019-03-13T08:36:41.391Z,983.53
2019-03-13T08:37:42.094Z,983.50
2019-03-13T08:38:41.549Z,983.63
2019-03-13T08:39:41.636Z,983.65
2019-03-13T08:40:41.717Z,983.62
2019-03-13T08:41:41.810Z,983.59
2019-03-13T08:42:42.233Z,983.59
2019-03-13T08:43:41.972Z,983.57
2019-03-13T08:44:42.059Z,983.47
2019-03-13T08:45:42.157Z,983.49
2019-03-13T08:46:42.245Z,983.62
2019-03-13T08:47:42.527Z,983.52
2019-03-13T08:48:42.427Z,983.44
2019-03-13T08:49:42.523Z,983.47
2019-03-13T08:50:42.612Z,983.54
2019-03-13T08:51:42.702Z,983.48
2019-03-13T08:52:42.787Z,983.47
2019-03-13T08:53:42.882Z,983.50
2019-03-13T08:54:43.016Z,983.50
2019-03-13T08:55:43.077Z,983.55
2019-03-13T08:56:43.225Z,983.42
2019-03-13T08:57:43.342Z,983.50
2019-03-13T08:58:43.411Z,983.45
2019-03-13T08:59:43.500Z,983.55
2019-03-13T09:00:43.584Z,983.73
2019-03-13T09:01:43.681Z,983.72
2019-03-13T09:02:43.766Z,983.55
2019-03-13T09:03:43.845Z,983.39
2019-03-13T09:04:43.948Z,983.31
2019-03-13T09:05:44.451Z,983.42
2019-03-13T09:06:44.555Z,983.30
2019-03-13T09:07:44.289Z,983.31
2019-03-13T09:08:44.378Z,983.22
2019-03-13T09:09:44.448Z,983.23
2019-03-13T09:10:44.542Z,983.32
2019-03-13T09:11:44.632Z,983.28
2019-03-13T09:12:44.763Z,983.29
2019-03-13T09:13:44.936Z,983.28
2019-03-13T09:14:44.919Z,983.25
2019-03-13T09:15:45.037Z,983.17
2019-03-13T09:16:45.622Z,983.30
2019-03-13T09:17:45.208Z,983.15
2019-03-13T09:18:45.282Z,983.08
2019-03-13T09:19:53.536Z,983.08
2019-03-13T09:20:45.507Z,982.84
2019-03-13T09:21:45.597Z,982.89
2019-03-13T09:22:45.689Z,982.82
2019-03-13T09:23:45.777Z,982.86
2019-03-13T09:24:45.872Z,982.81
2019-03-13T09:25:45.958Z,982.91
2019-03-13T09:26:46.049Z,982.91
2019-03-13T09:27:46.140Z,982.96
2019-03-13T09:28:46.234Z,983.03
2019-03-13T09:29:46.364Z,982.96
2019-03-13T09:30:46.423Z,982.88
2019-03-13T09:31:46.568Z,983.05
2019-03-13T09:32:46.599Z,982.92
2019-03-13T09:33:46.839Z,982.99
2019-03-13T09:34:47.685Z,982.91
2019-03-13T09:35:46.876Z,982.93
2019-03-13T09:36:46.966Z,983.02
2019-03-13T09:37:47.052Z,983.11
2019-03-13T09:38:47.140Z,983.07
2019-03-13T09:39:47.231Z,982.86
2019-03-13T09:40:47.321Z,982.80
2019-03-13T09:41:47.420Z,982.72
2019-03-13T09:42:47.501Z,982.76
2019-03-13T09:43:47.580Z,982.76
2019-03-13T09:44:47.678Z,982.82
2019-03-13T09:45:47.769Z,982.66
2019-03-13T09:46:47.859Z,982.81
2019-03-13T09:47:47.951Z,982.70
2019-03-13T09:48:48.045Z,982.61
2019-03-13T09:49:48.159Z,982.67
2019-03-13T09:50:48.278Z,982.88
2019-03-13T09:51:48.345Z,982.77
2019-03-13T09:52:48.489Z,982.63
2019-03-13T09:53:48.770Z,982.61
2019-03-13T09:54:48.588Z,982.45
2019-03-13T09:55:48.679Z,982.46
2019-03-13T09:56:48.783Z,982.65
2019-03-13T09:57:48.886Z,982.65
2019-03-13T09:58:48.975Z,982.60
2019-03-13T09:59:49.069Z,982.67
2019-03-13T10:00:49.165Z,982.68
2019-03-13T10:01:49.252Z,982.60
2019-03-13T10:02:49.349Z,982.57
2019-03-13T10:03:49.415Z,982.45
2019-03-13T10:04:49.505Z,982.44
2019-03-13T10:05:49.595Z,982.43
2019-03-13T10:06:49.687Z,982.48
2019-03-13T10:07:49.779Z,982.65
2019-03-13T10:08:49.885Z,982.56
2019-03-13T10:09:49.972Z,982.44
2019-03-13T10:10:50.065Z,982.27
2019-03-13T10:11:50.154Z,982.27
2019-03-13T10:12:50.243Z,982.48
2019-03-13T10:13:50.403Z,982.45
2019-03-13T10:14:50.597Z,982.55
2019-03-13T10:15:50.675Z,982.32
2019-03-13T10:16:51.025Z,982.60
2019-03-13T10:17:50.733Z,982.52
2019-03-13T10:18:51.620Z,982.50
2019-03-13T10:19:50.953Z,982.44
2019-03-13T10:20:51.042Z,982.48
2019-03-13T10:21:52.062Z,982.45
2019-03-13T10:22:52.324Z,982.50
2019-03-13T10:23:51.420Z,982.68
2019-03-13T10:24:51.508Z,982.34
2019-03-13T10:25:51.603Z,982.45
2019-03-13T10:26:51.684Z,982.41
2019-03-13T10:27:51.798Z,982.43
2019-03-13T10:28:51.854Z,982.57
2019-03-13T10:29:51.945Z,982.49
2019-03-13T10:30:52.038Z,982.46
2019-03-13T10:31:52.125Z,982.38
2019-03-13T10:32:52.218Z,982.48
2019-03-13T10:33:52.455Z,982.34
2019-03-13T10:34:52.573Z,982.26
2019-03-13T10:35:52.557Z,982.31
2019-03-13T10:36:52.546Z,982.30
2019-03-13T10:37:52.574Z,982.24
2019-03-13T10:38:52.791Z,982.31
2019-03-13T10:39:52.819Z,982.18
2019-03-13T10:40:52.858Z,982.28
2019-03-13T10:41:52.949Z,982.28
2019-03-13T10:42:53.047Z,982.24
2019-03-13T10:43:53.132Z,982.18
2019-03-13T10:44:53.222Z,982.34
2019-03-13T10:45:53.318Z,982.19
2019-03-13T10:46:53.453Z,982.32
2019-03-13T10:47:53.490Z,982.33
2019-03-13T10:48:53.721Z,982.32
2019-03-13T10:49:53.668Z,982.34
2019-03-13T10:50:53.754Z,982.35
2019-03-13T10:51:53.839Z,982.39
2019-03-13T10:52:53.928Z,982.34
2019-03-13T10:53:54.019Z,982.27
2019-03-13T10:54:54.108Z,982.28
2019-03-13T10:55:55.266Z,982.24
2019-03-13T10:56:54.282Z,982.25
2019-03-13T10:57:54.419Z,982.24
2019-03-13T10:58:54.530Z,982.27
2019-03-13T10:59:54.617Z,982.30
2019-03-13T11:00:54.706Z,982.34
2019-03-13T11:01:55.552Z,982.29
2019-03-13T11:02:54.892Z,982.32
2019-03-13T11:03:55.032Z,982.41
2019-03-13T11:04:55.054Z,982.34
2019-03-13T11:05:55.147Z,982.23
2019-03-13T11:06:55.611Z,982.36
2019-03-13T11:07:55.329Z,982.38
2019-03-13T11:08:55.397Z,982.38
2019-03-13T11:09:55.498Z,982.31
2019-03-13T11:10:55.587Z,982.38
2019-03-13T11:11:55.677Z,982.23
2019-03-13T11:12:55.758Z,982.32
2019-03-13T11:13:55.870Z,982.53
2019-03-13T11:14:55.956Z,982.43
2019-03-13T11:15:56.045Z,982.29
2019-03-13T11:16:56.969Z,982.29
2019-03-13T11:17:56.337Z,982.26
2019-03-13T11:18:56.547Z,982.30
2019-03-13T11:19:56.480Z,982.30
2019-03-13T11:20:56.563Z,982.31
2019-03-13T11:21:56.660Z,982.34
2019-03-13T11:22:57.504Z,982.25
2019-03-13T11:23:56.847Z,982.33
2019-03-13T11:24:56.932Z,982.25
2019-03-13T11:25:57.034Z,982.29
2019-03-13T11:26:57.123Z,982.24
2019-03-13T11:27:57.217Z,982.16
2019-03-13T11:28:57.305Z,982.00
2019-03-13T11:29:57.411Z,982.06
2019-03-13T11:30:57.477Z,982.05
2019-03-13T11:31:57.556Z,982.22
2019-03-13T11:32:57.647Z,982.11
2019-03-13T11:33:57.733Z,982.02
2019-03-13T11:34:57.822Z,982.04
2019-03-13T11:35:57.914Z,981.96
2019-03-13T11:36:58.001Z,982.09
2019-03-13T11:37:58.092Z,982.20
2019-03-13T11:38:58.186Z,982.05
2019-03-13T11:39:58.363Z,982.12
2019-03-13T11:40:58.394Z,981.97
2019-03-13T11:41:58.481Z,982.05
2019-03-13T11:42:58.573Z,981.98
2019-03-13T11:43:58.663Z,981.89
2019-03-13T11:44:58.770Z,982.12
2019-03-13T11:45:58.861Z,982.08
2019-03-13T11:46:58.951Z,981.80
2019-03-13T11:47:59.042Z,982.10
2019-03-13T11:48:59.136Z,982.00
2019-03-13T11:49:59.226Z,981.88
2019-03-13T11:50:59.315Z,981.97
2019-03-13T11:51:59.399Z,981.89
2019-03-13T11:52:59.512Z,981.80
2019-03-13T11:53:59.602Z,981.87
2019-03-13T11:54:59.690Z,981.89
2019-03-13T11:55:59.783Z,981.83
2019-03-13T11:56:59.873Z,981.94
2019-03-13T11:57:59.969Z,981.76
2019-03-13T11:59:00.054Z,981.83
2019-03-13T12:00:00.411Z,981.81
2019-03-13T12:01:00.228Z,981.85
2019-03-13T12:02:00.390Z,981.76
2019-03-13T12:03:00.461Z,981.84
2019-03-13T12:04:00.551Z,981.73
2019-03-13T12:05:00.657Z,981.89
2019-03-13T12:06:01.617Z,981.85
2019-03-13T12:07:00.806Z,981.87
2019-03-13T12:08:00.898Z,982.11
2019-03-13T12:09:02.393Z,981.97
2019-03-13T12:10:01.053Z,981.93
2019-03-13T12:11:01.142Z,981.97
2019-03-13T12:12:01.251Z,981.77
2019-03-13T12:13:01.338Z,981.84
2019-03-13T12:14:01.423Z,981.73
2019-03-13T12:15:01.509Z,981.78
2019-03-13T12:16:01.594Z,981.74
2019-03-13T12:17:01.699Z,981.76
2019-03-13T12:18:01.786Z,981.71
2019-03-13T12:19:01.882Z,981.76
2019-03-13T12:20:01.967Z,981.71
2019-03-13T12:21:02.045Z,981.78
2019-03-13T12:22:02.193Z,981.82
2019-03-13T12:23:02.407Z,981.76
2019-03-13T12:24:02.427Z,981.78
2019-03-13T12:26:44.959Z,981.83
2019-03-13T12:27:45.455Z,981.81
2019-03-13T12:28:45.168Z,981.69
2019-03-13T12:29:45.254Z,981.73
2019-03-13T12:30:45.339Z,981.87
2019-03-13T12:31:45.432Z,981.81
2019-03-13T12:32:45.546Z,981.42
2019-03-13T12:33:45.624Z,981.52
2019-03-13T12:34:45.709Z,981.61
2019-03-13T12:35:45.808Z,981.50
2019-03-13T12:36:45.897Z,981.41